Camp Washington, Ohio
Current Conditions -  °F | °C
As of 11:34 AM on Saturday 20 Dec 2014 (Local Time) from KI69 Reporting Station
Overcast Overcast  
Wind Chill: 32°   Ceiling: 2000
Heat Index: 32°   Visibility: 10mi
Dew Point: 27°   Wind: 0mph
Humidity: 80%   Direction: NA
Pressure: 30.28"   Gusts: NA
Location:  39.1426°N, 84.5545°W
Report Text: KI69 201634Z AUTO 00000KT 10SM OVC020 00/M03 A3028 RMK AO1
Loading
Personal Weather Stations






























Interactive Weather Map New forecast layout! Learn more

10-Day Weather Forecast

Advertisements
Track Severe Weather on mobile